Time;durP1;ratioP1;P1;durP2;ratioP2;P2;SDS_P1;SDS_P2;PMS_P1;PMS_P2;Temp;Humidity;BMP_temperature;BMP_pressure;BME280_temperature;BME280_humidity;BME280_pressure;Samples;Min_cycle;Max_cycle;Signal;HPM_P1;HPM_P2
2021/07/16 00:03:34;;;;;;;18.95;11.10;;;30.20;50.30;;;;;;4779844;55;21074;-26
2021/07/16 00:08:35;;;;;;;15.95;11.73;;;30.20;50.10;;;;;;4762293;55;21038;-23
2021/07/16 00:13:37;;;;;;;15.43;11.18;;;30.20;50.00;;;;;;4883634;55;21489;-30
2021/07/16 00:18:38;;;;;;;14.10;11.30;;;30.10;50.10;;;;;;4756540;55;21495;-29
2021/07/16 00:23:42;;;;;;;12.55;10.85;;;30.20;50.30;;;;;;4779542;55;21074;-23
2021/07/16 00:28:43;;;;;;;13.43;11.25;;;30.20;50.30;;;;;;4749687;55;21053;-29
2021/07/16 00:33:45;;;;;;;12.35;10.27;;;30.20;50.20;;;;;;4748571;55;20990;-26
2021/07/16 00:38:45;;;;;;;13.18;10.40;;;30.20;50.20;;;;;;4748168;55;21547;-26
2021/07/16 00:43:46;;;;;;;13.00;9.55;;;30.20;50.30;;;;;;4783198;55;20998;-30
2021/07/16 00:48:47;;;;;;;12.52;10.13;;;30.20;50.50;;;;;;4748670;55;21017;-26
2021/07/16 00:53:48;;;;;;;15.75;10.13;;;30.20;50.50;;;;;;4775822;55;20998;-29
2021/07/16 00:58:49;;;;;;;14.73;9.57;;;30.10;50.20;;;;;;4802418;55;21520;-29
2021/07/16 01:03:50;;;;;;;13.73;10.43;;;30.20;50.50;;;;;;4748518;55;21022;-27
2021/07/16 01:08:51;;;;;;;12.32;10.05;;;30.10;50.40;;;;;;4740213;55;21061;-25
2021/07/16 01:13:54;;;;;;;13.00;10.18;;;30.10;50.40;;;;;;4738904;55;21069;-24
2021/07/16 01:18:54;;;;;;;11.70;9.48;;;30.20;50.60;;;;;;4738194;55;21032;-25
2021/07/16 01:23:56;;;;;;;11.35;9.35;;;30.20;50.60;;;;;;4764723;55;21473;-24
2021/07/16 01:28:59;;;;;;;13.10;9.63;;;30.20;50.60;;;;;;4799804;55;21054;-27
2021/07/16 01:34:00;;;;;;;12.00;9.57;;;30.10;50.60;;;;;;4743586;55;21496;-25
2021/07/16 01:39:01;;;;;;;11.85;8.93;;;30.20;50.70;;;;;;4737939;59;21074;-29
2021/07/16 01:44:04;;;;;;;13.00;9.23;;;30.10;50.60;;;;;;4745519;55;21002;-25
2021/07/16 01:49:05;;;;;;;11.70;8.98;;;30.10;50.70;;;;;;4738302;59;21457;-24
2021/07/16 01:54:05;;;;;;;14.27;9.00;;;30.10;50.60;;;;;;4738104;59;21473;-26
2021/07/16 01:59:06;;;;;;;11.45;8.90;;;30.10;50.80;;;;;;4749047;55;21050;-23
2021/07/16 02:04:08;;;;;;;13.23;9.05;;;30.10;50.80;;;;;;4742352;55;20998;-26
2021/07/16 02:09:09;;;;;;;11.20;8.80;;;30.10;50.60;;;;;;4772873;55;21017;-27
2021/07/16 02:14:10;;;;;;;10.50;8.70;;;30.10;51.30;;;;;;4744533;55;21189;-25
2021/07/16 02:19:10;;;;;;;12.20;8.88;;;30.10;50.70;;;;;;4737899;59;21054;-26
2021/07/16 02:24:11;;;;;;;11.95;7.95;;;30.10;50.70;;;;;;4745776;55;20978;-28
2021/07/16 02:29:12;;;;;;;11.68;8.27;;;30.10;50.60;;;;;;4743009;55;21005;-30
2021/07/16 02:34:13;;;;;;;10.40;8.82;;;30.10;50.80;;;;;;4743092;55;21054;-27
2021/07/16 02:39:14;;;;;;;11.40;8.02;;;30.10;50.80;;;;;;4737824;55;21009;-28
2021/07/16 02:44:14;;;;;;;11.05;8.02;;;30.10;50.70;;;;;;4758120;55;20994;-31
2021/07/16 02:49:15;;;;;;;10.75;8.13;;;30.10;50.60;;;;;;4738581;55;20990;-23
2021/07/16 02:54:16;;;;;;;10.63;7.15;;;30.10;50.50;;;;;;4749193;55;21057;-29
2021/07/16 02:59:17;;;;;;;9.38;7.35;;;30.10;50.50;;;;;;4823157;55;21038;-28
2021/07/16 03:04:19;;;;;;;11.73;6.93;;;30.10;50.50;;;;;;4749251;55;21006;-29
2021/07/16 03:09:20;;;;;;;9.07;7.07;;;30.10;50.40;;;;;;4738315;59;20986;-31
2021/07/16 03:14:20;;;;;;;10.27;7.12;;;30.00;50.40;;;;;;4748517;55;20979;-28
2021/07/16 03:19:21;;;;;;;9.63;7.10;;;30.00;50.50;;;;;;4744652;55;21041;-24
2021/07/16 03:24:22;;;;;;;7.85;6.57;;;30.00;50.50;;;;;;4746694;55;21009;-22
2021/07/16 03:29:23;;;;;;;10.07;6.80;;;30.00;50.50;;;;;;4738714;55;20998;-32
2021/07/16 03:34:24;;;;;;;9.85;6.68;;;30.00;50.60;;;;;;4738610;59;21473;-25
2021/07/16 03:39:25;;;;;;;12.05;6.87;;;30.00;50.60;;;;;;4743352;55;21017;-23
2021/07/16 03:44:25;;;;;;;9.00;6.93;;;30.00;50.60;;;;;;4772404;55;21085;-27
2021/07/16 03:49:28;;;;;;;9.32;6.75;;;30.00;50.50;;;;;;4746772;55;21009;-27
2021/07/16 03:54:28;;;;;;;11.90;6.72;;;30.00;50.60;;;;;;4757981;55;21508;-23
2021/07/16 03:59:29;;;;;;;11.25;7.00;;;30.00;50.60;;;;;;4744812;55;21094;-23
2021/07/16 04:04:32;;;;;;;11.85;7.55;;;30.00;50.70;;;;;;4752183;55;21089;-26
2021/07/16 04:09:34;;;;;;;11.07;6.85;;;29.90;50.60;;;;;;4738411;59;21527;-27
2021/07/16 04:14:44;;;;;;;8.85;6.90;;;29.90;50.50;;;;;;4747486;55;21528;-28
2021/07/16 04:19:45;;;;;;;10.73;6.90;;;29.90;50.50;;;;;;4755027;55;21037;-28
2021/07/16 04:24:46;;;;;;;11.12;6.80;;;29.90;50.80;;;;;;4748062;55;20986;-24
2021/07/16 04:29:47;;;;;;;9.63;6.70;;;29.90;50.80;;;;;;4752751;55;21500;-24
2021/07/16 04:34:48;;;;;;;9.63;6.87;;;29.90;50.70;;;;;;4738500;59;21002;-27
2021/07/16 04:39:49;;;;;;;9.15;7.10;;;29.90;50.80;;;;;;4750770;55;21034;-23
2021/07/16 04:44:50;;;;;;;10.63;7.62;;;29.90;50.60;;;;;;4738187;59;21078;-25
2021/07/16 04:49:51;;;;;;;13.35;7.32;;;29.90;50.60;;;;;;4743392;55;21504;-25
2021/07/16 04:54:52;;;;;;;9.27;6.82;;;29.90;50.60;;;;;;4752333;55;22233;-29
2021/07/16 04:59:52;;;;;;;11.10;6.95;;;29.90;50.60;;;;;;4759437;55;21030;-27
2021/07/16 05:04:53;;;;;;;12.80;7.12;;;29.90;50.60;;;;;;4760830;55;21244;-25
2021/07/16 05:09:54;;;;;;;11.12;6.70;;;29.90;50.60;;;;;;4753079;55;22093;-29
2021/07/16 05:14:55;;;;;;;9.45;6.47;;;29.90;51.30;;;;;;4782588;55;21139;-25
2021/07/16 05:19:56;;;;;;;9.77;7.25;;;29.90;50.60;;;;;;4782656;55;21105;-26
2021/07/16 05:24:56;;;;;;;10.32;7.00;;;29.90;50.70;;;;;;4759215;55;20994;-27
2021/07/16 05:30:00;;;;;;;13.88;8.13;;;29.90;50.70;;;;;;4758265;55;20987;-26
2021/07/16 05:35:02;;;;;;;13.32;7.60;;;29.90;50.70;;;;;;4738374;59;21650;-30
2021/07/16 05:40:04;;;;;;;10.27;7.20;;;29.90;50.90;;;;;;4737919;57;21568;-25
2021/07/16 05:45:06;;;;;;;11.70;7.25;;;29.90;50.90;;;;;;4793669;55;21018;-26
2021/07/16 05:50:07;;;;;;;10.75;7.82;;;29.90;50.90;;;;;;4738527;59;21099;-26
2021/07/16 05:55:11;;;;;;;12.65;8.25;;;29.90;50.90;;;;;;4748965;55;21160;-28
2021/07/16 06:00:13;;;;;;;11.38;8.07;;;29.90;51.00;;;;;;4756742;55;21081;-27
2021/07/16 06:05:14;;;;;;;17.65;9.27;;;29.90;51.00;;;;;;4738893;55;20978;-27
2021/07/16 06:10:15;;;;;;;11.40;8.45;;;29.90;51.10;;;;;;4783422;55;21018;-28
2021/07/16 06:15:17;;;;;;;15.93;9.18;;;29.90;51.10;;;;;;4762373;55;21085;-25
2021/07/16 06:20:18;;;;;;;11.98;8.82;;;29.90;51.10;;;;;;4747426;55;21050;-26
2021/07/16 06:25:19;;;;;;;16.37;10.07;;;29.90;51.10;;;;;;4739264;55;21532;-28
2021/07/16 06:30:20;;;;;;;14.82;9.25;;;29.90;51.00;;;;;;4799732;55;21564;-25
2021/07/16 06:35:20;;;;;;;16.30;10.85;;;29.90;51.00;;;;;;4738713;55;21005;-27
2021/07/16 06:40:21;;;;;;;18.73;11.60;;;29.90;51.00;;;;;;4744307;55;21026;-26
2021/07/16 06:45:22;;;;;;;15.93;10.32;;;29.90;51.00;;;;;;4785045;55;21057;-30
2021/07/16 06:50:23;;;;;;;18.77;12.35;;;29.90;51.00;;;;;;4738478;59;21027;-29
2021/07/16 06:55:24;;;;;;;17.33;12.07;;;29.90;50.90;;;;;;4762816;55;21063;-28
2021/07/16 07:00:25;;;;;;;18.27;13.02;;;29.90;50.90;;;;;;4739947;55;21070;-27
2021/07/16 07:05:26;;;;;;;20.98;12.63;;;29.90;50.90;;;;;;4754680;55;20982;-31
2021/07/16 07:10:27;;;;;;;19.52;12.63;;;29.90;50.80;;;;;;4741061;55;21456;-29
2021/07/16 07:15:28;;;;;;;19.42;12.90;;;29.90;50.90;;;;;;4747523;55;20982;-29
2021/07/16 07:20:28;;;;;;;18.73;12.95;;;29.90;50.80;;;;;;4746823;55;20997;-24
2021/07/16 07:25:30;;;;;;;17.35;12.95;;;29.90;50.90;;;;;;4737709;59;20998;-30
2021/07/16 07:30:32;;;;;;;21.02;13.10;;;29.90;50.80;;;;;;4738215;59;21001;-30
2021/07/16 07:35:34;;;;;;;20.10;13.65;;;29.90;50.80;;;;;;4738261;59;21014;-29
2021/07/16 07:40:35;;;;;;;17.92;13.07;;;29.90;50.70;;;;;;4763057;55;21042;-26
2021/07/16 07:45:36;;;;;;;20.48;13.25;;;29.90;50.90;;;;;;4755076;55;20986;-26
2021/07/16 07:50:37;;;;;;;22.58;13.60;;;29.90;51.00;;;;;;4751617;55;21453;-30
2021/07/16 07:55:38;;;;;;;26.67;15.10;;;29.90;51.00;;;;;;4736563;55;21057;-29
2021/07/16 08:00:38;;;;;;;28.77;17.83;;;29.90;52.10;;;;;;4752954;55;21485;-26
2021/07/16 08:05:39;;;;;;;32.08;19.73;;;29.90;51.40;;;;;;4747219;55;21045;-31
2021/07/16 08:10:40;;;;;;;29.63;20.85;;;29.90;52.00;;;;;;4757225;55;21572;-25
2021/07/16 08:15:41;;;;;;;29.02;21.12;;;29.90;52.00;;;;;;4759324;55;21074;-24
2021/07/16 08:20:42;;;;;;;30.77;22.20;;;29.90;51.90;;;;;;4772802;55;21073;-29
2021/07/16 08:25:43;;;;;;;28.17;21.33;;;29.90;51.80;;;;;;4737410;59;21525;-26
2021/07/16 08:30:43;;;;;;;22.60;18.23;;;30.00;51.90;;;;;;4737292;59;21017;-28
2021/07/16 08:35:44;;;;;;;29.33;23.10;;;30.00;51.70;;;;;;4749245;55;20986;-27
2021/07/16 08:40:45;;;;;;;36.70;26.77;;;30.00;52.00;;;;;;4750868;55;21058;-25
2021/07/16 08:45:50;;;;;;;41.05;29.15;;;30.00;51.90;;;;;;4744760;55;21046;-26
2021/07/16 08:50:53;;;;;;;43.70;32.00;;;30.10;52.10;;;;;;4763308;55;21026;-25
2021/07/16 08:55:53;;;;;;;51.88;38.67;;;30.10;52.10;;;;;;4777027;55;21038;-26
2021/07/16 09:00:54;;;;;;;51.40;40.03;;;30.10;52.20;;;;;;4737394;59;21026;-25
2021/07/16 09:05:55;;;;;;;52.50;41.20;;;30.20;52.50;;;;;;4742703;55;21017;-32
2021/07/16 09:10:59;;;;;;;42.67;31.37;;;30.20;52.50;;;;;;4743734;55;21018;-26
2021/07/16 09:16:02;;;;;;;33.88;29.10;;;30.20;52.80;;;;;;4747218;55;20978;-26
2021/07/16 09:21:08;;;;;;;34.80;24.05;;;30.20;52.90;;;;;;4737538;59;21543;-25
2021/07/16 09:26:13;;;;;;;35.17;25.40;;;30.20;52.50;;;;;;4737320;59;21464;-24
2021/07/16 09:31:23;;;;;;;32.55;25.60;;;30.10;52.90;;;;;;4750356;55;21480;-26
2021/07/16 09:36:43;;;;;;;31.65;25.85;;;30.20;53.00;;;;;;4749484;55;21456;-29
2021/07/16 09:41:57;;;;;;;28.15;21.20;;;30.20;52.80;;;;;;4741811;55;21022;-26
2021/07/16 09:47:18;;;;;;;30.17;24.17;;;30.20;53.50;;;;;;4750308;55;20986;-27
2021/07/16 09:52:20;;;;;;;32.85;24.95;;;30.20;53.10;;;;;;4746676;55;21033;-28
2021/07/16 09:57:44;;;;;;;35.00;25.37;;;30.20;53.10;;;;;;4763076;55;21042;-24
2021/07/16 10:02:50;;;;;;;32.53;25.27;;;30.20;53.10;;;;;;4757013;55;21005;-25
2021/07/16 10:07:52;;;;;;;32.58;25.55;;;30.20;53.10;;;;;;4757502;55;20974;-27
2021/07/16 10:12:53;;;;;;;31.42;24.87;;;30.20;53.10;;;;;;4760327;55;21628;-26
2021/07/16 10:17:54;;;;;;;28.40;24.52;;;30.20;53.10;;;;;;4792004;55;21018;-30
2021/07/16 10:22:55;;;;;;;28.98;24.75;;;30.20;53.10;;;;;;4741235;55;21037;-27
2021/07/16 10:27:56;;;;;;;30.17;22.90;;;30.20;53.20;;;;;;4742728;55;21091;-25
2021/07/16 10:32:57;;;;;;;26.23;19.50;;;30.20;53.00;;;;;;4797548;55;22206;-25
2021/07/16 10:38:00;;;;;;;25.92;18.80;;;30.20;53.30;;;;;;4748085;55;21037;-25
2021/07/16 10:43:01;;;;;;;24.50;19.70;;;30.10;53.30;;;;;;4778004;55;21022;-26
2021/07/16 10:48:23;;;;;;;23.98;17.55;;;30.20;53.80;;;;;;4738533;59;21081;-37
2021/07/16 10:53:42;;;;;;;28.33;17.73;;;30.10;53.80;;;;;;4738308;55;21014;-30
2021/07/16 10:58:45;;;;;;;26.80;18.17;;;30.20;54.20;;;;;;4736950;59;21038;-28
2021/07/16 11:03:50;;;;;;;28.12;20.60;;;30.20;54.50;;;;;;4739067;55;21540;-26
2021/07/16 11:08:53;;;;;;;34.10;26.50;;;30.20;54.50;;;;;;4782193;55;21476;-28
2021/07/16 11:13:56;;;;;;;41.15;31.80;;;30.20;54.50;;;;;;4767258;55;21018;-27
2021/07/16 11:20:49;;;;;;;43.10;36.15;;;30.30;55.10;;;;;;4737419;59;21073;-26
2021/07/16 11:25:50;;;;;;;53.00;40.97;;;30.30;55.30;;;;;;4745563;55;21440;-28
2021/07/16 11:31:00;;;;;;;55.10;40.45;;;30.30;55.50;;;;;;4750038;55;21472;-25
2021/07/16 11:36:03;;;;;;;54.10;42.88;;;30.30;55.60;;;;;;4759994;55;21002;-30
2021/07/16 11:41:09;;;;;;;50.25;42.88;;;30.20;55.40;;;;;;4772401;55;20982;-26
2021/07/16 11:46:10;;;;;;;50.92;41.05;;;30.30;55.40;;;;;;4797021;55;21091;-31
2021/07/16 11:51:11;;;;;;;52.03;41.78;;;30.30;55.30;;;;;;4737199;55;21022;-28
2021/07/16 11:56:12;;;;;;;50.00;39.15;;;30.20;55.30;;;;;;4740332;55;21090;-31
2021/07/16 12:01:13;;;;;;;51.00;41.42;;;30.20;55.30;;;;;;4756302;55;21002;-28
2021/07/16 12:06:18;;;;;;;52.20;41.58;;;30.20;55.20;;;;;;4748111;55;21488;-27
2021/07/16 12:11:19;;;;;;;49.50;41.55;;;30.20;55.20;;;;;;4746339;55;21038;-25
2021/07/16 12:16:20;;;;;;;46.25;38.25;;;30.20;55.20;;;;;;4738658;59;20998;-28
2021/07/16 12:21:21;;;;;;;46.72;38.17;;;30.20;55.10;;;;;;4743966;55;21512;-24
2021/07/16 12:26:24;;;;;;;50.15;38.80;;;30.20;55.10;;;;;;4746628;55;21046;-30
2021/07/16 12:31:25;;;;;;;49.50;39.35;;;30.20;55.10;;;;;;4762017;55;21176;-32
2021/07/16 12:36:31;;;;;;;49.60;40.88;;;30.20;55.10;;;;;;4751561;55;21564;-26
2021/07/16 12:41:31;;;;;;;44.53;37.35;;;30.20;55.10;;;;;;4779989;55;21497;-27
2021/07/16 12:46:32;;;;;;;46.28;38.10;;;30.20;55.10;;;;;;4741637;55;21026;-27
2021/07/16 12:51:39;;;;;;;42.83;37.28;;;30.20;55.00;;;;;;4739564;55;21019;-29
2021/07/16 12:56:40;;;;;;;41.85;36.85;;;30.20;55.10;;;;;;4753479;55;21070;-28
2021/07/16 13:01:49;;;;;;;43.78;37.08;;;30.20;55.00;;;;;;4754422;55;21594;-32
2021/07/16 13:06:51;;;;;;;43.65;36.83;;;30.20;55.00;;;;;;4755624;55;21499;-27
2021/07/16 13:12:19;;;;;;;41.42;36.90;;;30.20;55.00;;;;;;4751281;55;21507;-26
2021/07/16 13:17:36;;;;;;;42.25;35.70;;;30.20;55.00;;;;;;4742858;55;21089;-31
2021/07/16 13:22:39;;;;;;;41.97;36.50;;;30.20;55.00;;;;;;4781229;55;21500;-28
2021/07/16 13:27:41;;;;;;;40.67;35.70;;;30.20;55.00;;;;;;4737698;59;21068;-31
2021/07/16 13:32:44;;;;;;;42.35;35.35;;;30.20;55.00;;;;;;4797688;55;21002;-32
2021/07/16 13:37:45;;;;;;;41.10;35.33;;;30.20;55.00;;;;;;4739338;55;21544;-32
2021/07/16 13:42:46;;;;;;;39.03;34.20;;;30.20;54.90;;;;;;4738880;55;21074;-29
2021/07/16 13:47:47;;;;;;;40.65;34.00;;;30.20;54.90;;;;;;4742253;55;21120;-25
2021/07/16 13:52:47;;;;;;;40.90;35.13;;;30.20;54.90;;;;;;4740678;55;21488;-32
2021/07/16 13:57:48;;;;;;;39.22;35.05;;;30.20;54.90;;;;;;4750476;55;21022;-27
2021/07/16 14:02:49;;;;;;;38.45;33.85;;;30.20;54.90;;;;;;4757809;55;21070;-26
2021/07/16 14:08:02;;;;;;;38.63;34.17;;;30.20;54.90;;;;;;4738293;55;21547;-23
2021/07/16 14:13:03;;;;;;;38.38;33.75;;;30.20;54.90;;;;;;4737643;59;21046;-31
2021/07/16 14:18:04;;;;;;;37.92;33.67;;;30.20;54.90;;;;;;4752643;55;21026;-26
2021/07/16 14:23:05;;;;;;;37.83;32.00;;;30.20;54.80;;;;;;4741584;55;21557;-31
2021/07/16 14:28:06;;;;;;;36.50;32.50;;;30.20;54.90;;;;;;4749731;55;20982;-28
2021/07/16 14:33:10;;;;;;;35.92;31.98;;;30.20;54.80;;;;;;4748706;55;21034;-30
2021/07/16 14:38:11;;;;;;;35.75;31.75;;;30.20;54.80;;;;;;4748550;55;21606;-30
2021/07/16 14:43:12;;;;;;;35.42;31.62;;;30.20;54.90;;;;;;4746172;55;21524;-26
2021/07/16 14:48:13;;;;;;;36.17;31.15;;;30.20;54.80;;;;;;4780507;55;20985;-26
2021/07/16 14:53:14;;;;;;;34.15;30.58;;;30.20;54.80;;;;;;4762376;55;21588;-26
2021/07/16 14:58:15;;;;;;;35.75;31.98;;;30.20;54.80;;;;;;4737036;59;21100;-27
2021/07/16 15:03:16;;;;;;;36.10;32.03;;;30.20;54.80;;;;;;4738588;55;21512;-25
2021/07/16 15:08:17;;;;;;;34.72;30.65;;;30.20;54.80;;;;;;4741058;55;21048;-27
2021/07/16 15:13:18;;;;;;;36.83;32.15;;;30.20;54.80;;;;;;4742394;55;21002;-27
2021/07/16 15:18:20;;;;;;;35.20;31.40;;;30.20;54.80;;;;;;4765738;55;21472;-27
2021/07/16 15:23:21;;;;;;;34.72;30.12;;;30.20;54.80;;;;;;4743679;55;21085;-26
2021/07/16 15:28:22;;;;;;;33.83;30.02;;;30.20;54.80;;;;;;4741737;55;21481;-27
2021/07/16 15:33:23;;;;;;;32.33;28.83;;;30.20;54.80;;;;;;4764959;55;20990;-28
2021/07/16 15:38:23;;;;;;;34.47;30.55;;;30.20;54.90;;;;;;4744217;55;21609;-27
2021/07/16 15:43:24;;;;;;;34.10;30.50;;;30.20;54.90;;;;;;4760065;55;21077;-28
2021/07/16 15:48:25;;;;;;;34.78;30.98;;;30.20;54.90;;;;;;4748411;55;20990;-30
2021/07/16 15:53:27;;;;;;;33.72;30.00;;;30.20;55.00;;;;;;4743421;55;21014;-24
2021/07/16 15:58:28;;;;;;;35.67;31.08;;;30.20;55.00;;;;;;4741942;55;21572;-27
2021/07/16 16:03:28;;;;;;;33.47;29.87;;;30.20;55.10;;;;;;4738732;59;21018;-29
2021/07/16 16:08:29;;;;;;;35.33;31.58;;;30.20;55.00;;;;;;4743289;55;21104;-24
2021/07/16 16:13:30;;;;;;;33.47;29.58;;;30.20;55.10;;;;;;4738624;59;21520;-32
2021/07/16 16:18:31;;;;;;;34.42;30.77;;;30.20;55.10;;;;;;4763110;55;21469;-27
2021/07/16 16:23:35;;;;;;;35.13;29.95;;;30.20;55.10;;;;;;4769954;55;21054;-29
2021/07/16 16:28:36;;;;;;;33.33;29.23;;;30.20;55.20;;;;;;4740119;55;21568;-28
2021/07/16 16:33:37;;;;;;;33.38;29.92;;;30.10;55.20;;;;;;4775393;55;21018;-28
2021/07/16 16:38:39;;;;;;;32.42;28.92;;;30.20;55.40;;;;;;4740488;55;20990;-28
2021/07/16 16:43:39;;;;;;;32.90;29.50;;;30.20;55.30;;;;;;4756957;55;21002;-27
2021/07/16 16:48:43;;;;;;;35.90;29.48;;;30.10;55.30;;;;;;4738426;59;21030;-27
2021/07/16 16:53:44;;;;;;;35.05;30.05;;;30.20;55.40;;;;;;4779603;55;21483;-23
2021/07/16 16:58:45;;;;;;;32.40;28.90;;;30.20;55.50;;;;;;4752012;55;21085;-23
2021/07/16 17:03:46;;;;;;;33.38;29.63;;;30.20;55.50;;;;;;4753912;55;21002;-25
2021/07/16 17:08:47;;;;;;;33.40;29.08;;;30.10;55.50;;;;;;4761965;55;21520;-25
2021/07/16 17:13:47;;;;;;;30.70;27.48;;;30.10;55.50;;;;;;4738596;59;20994;-30
2021/07/16 17:18:48;;;;;;;32.35;28.38;;;30.10;55.50;;;;;;4746287;55;21094;-25
2021/07/16 17:23:49;;;;;;;30.27;26.98;;;30.10;55.50;;;;;;4759804;55;21046;-29
2021/07/16 17:28:52;;;;;;;30.42;27.08;;;30.10;55.60;;;;;;4773994;55;21090;-27
2021/07/16 17:33:53;;;;;;;30.65;27.17;;;30.10;55.50;;;;;;4760576;55;21026;-23
2021/07/16 17:38:54;;;;;;;31.02;27.67;;;30.10;55.60;;;;;;4738223;59;21098;-24
2021/07/16 17:43:54;;;;;;;30.05;26.92;;;30.10;55.50;;;;;;4773841;55;21687;-25
2021/07/16 17:48:57;;;;;;;29.95;26.40;;;30.10;55.50;;;;;;4746827;55;21464;-26
2021/07/16 17:53:58;;;;;;;31.37;27.95;;;30.10;55.60;;;;;;4759166;55;21018;-24
2021/07/16 17:58:59;;;;;;;31.45;28.15;;;30.10;55.50;;;;;;4750589;55;21050;-26
2021/07/16 18:03:59;;;;;;;31.37;28.15;;;30.10;55.60;;;;;;4743945;55;21042;-26
2021/07/16 18:09:00;;;;;;;32.90;28.75;;;30.10;55.50;;;;;;4766804;55;21017;-25
2021/07/16 18:14:04;;;;;;;30.48;27.17;;;30.10;55.50;;;;;;4752744;55;21555;-23
2021/07/16 18:19:05;;;;;;;30.55;27.25;;;30.10;55.50;;;;;;4737700;59;21524;-29
2021/07/16 18:24:05;;;;;;;30.80;27.60;;;30.10;55.60;;;;;;4757708;55;21006;-32
2021/07/16 18:29:06;;;;;;;31.12;27.77;;;30.10;55.50;;;;;;4767492;55;21009;-28
2021/07/16 18:34:08;;;;;;;30.52;27.37;;;30.10;55.50;;;;;;4775510;55;20989;-24
2021/07/16 18:39:08;;;;;;;31.65;28.20;;;30.10;55.60;;;;;;4761411;55;21127;-29
2021/07/16 18:44:10;;;;;;;30.40;27.23;;;30.10;55.60;;;;;;4738481;59;21018;-31
2021/07/16 18:49:11;;;;;;;29.35;26.25;;;30.10;55.60;;;;;;4741539;55;21809;-26
2021/07/16 18:54:13;;;;;;;30.75;27.27;;;30.00;55.50;;;;;;4757671;55;21013;-29
2021/07/16 18:59:14;;;;;;;30.67;27.40;;;30.10;55.60;;;;;;4747367;55;21576;-29
2021/07/16 19:04:16;;;;;;;30.45;27.25;;;30.10;55.60;;;;;;4739462;55;21070;-28
2021/07/16 19:09:16;;;;;;;30.88;27.75;;;30.10;55.60;;;;;;4744104;55;21567;-32
2021/07/16 19:14:17;;;;;;;30.33;27.15;;;30.10;55.60;;;;;;4737897;59;21015;-29
2021/07/16 19:19:18;;;;;;;31.02;27.70;;;30.10;55.60;;;;;;4737682;59;21586;-29
2021/07/16 19:24:19;;;;;;;30.20;27.10;;;30.10;55.70;;;;;;4756207;55;21037;-30
2021/07/16 19:29:20;;;;;;;31.02;27.42;;;30.10;55.70;;;;;;4749063;55;21010;-28
2021/07/16 19:34:21;;;;;;;29.98;26.83;;;30.00;55.60;;;;;;4759302;55;21086;-28
2021/07/16 19:39:21;;;;;;;31.25;26.45;;;30.00;55.60;;;;;;4756777;55;21159;-24
2021/07/16 19:44:22;;;;;;;30.37;27.27;;;30.10;55.70;;;;;;4759018;55;21005;-24
2021/07/16 19:49:24;;;;;;;29.83;26.90;;;30.00;55.60;;;;;;4775295;55;21005;-23
2021/07/16 19:54:25;;;;;;;29.75;26.62;;;30.10;55.70;;;;;;4757000;55;21042;-26
2021/07/16 19:59:29;;;;;;;30.27;27.05;;;30.00;55.60;;;;;;4748271;55;21085;-28
2021/07/16 20:04:29;;;;;;;30.30;27.05;;;30.00;55.60;;;;;;4767019;55;21042;-30
2021/07/16 20:09:30;;;;;;;29.00;26.00;;;30.00;55.60;;;;;;4757482;55;20986;-27
2021/07/16 20:14:32;;;;;;;30.48;27.37;;;30.00;55.60;;;;;;4778980;55;21036;-26
2021/07/16 20:19:36;;;;;;;30.92;27.62;;;30.00;55.60;;;;;;4783165;55;21579;-26
2021/07/16 20:24:43;;;;;;;29.15;26.02;;;30.00;55.60;;;;;;4739835;55;21026;-29
2021/07/16 20:29:46;;;;;;;28.35;25.40;;;30.00;55.60;;;;;;4767158;55;20997;-25
2021/07/16 20:34:46;;;;;;;28.92;26.00;;;30.00;55.60;;;;;;4790713;55;21062;-23
2021/07/16 20:39:49;;;;;;;28.27;25.17;;;30.00;55.60;;;;;;4738644;55;21137;-24
2021/07/16 20:44:52;;;;;;;28.48;25.58;;;30.00;55.60;;;;;;4756997;55;21050;-25
2021/07/16 20:49:52;;;;;;;28.58;25.58;;;30.00;55.60;;;;;;4787499;55;21026;-24
2021/07/16 20:54:53;;;;;;;26.30;23.60;;;30.00;55.60;;;;;;4756597;55;21505;-25
2021/07/16 20:59:54;;;;;;;28.20;24.58;;;30.00;55.60;;;;;;4737883;59;21062;-23
2021/07/16 21:04:56;;;;;;;26.73;24.05;;;30.00;55.60;;;;;;4813972;55;21540;-27
2021/07/16 21:09:57;;;;;;;26.73;23.90;;;30.00;55.50;;;;;;4780346;55;21073;-21
2021/07/16 21:14:58;;;;;;;26.48;23.65;;;30.00;55.60;;;;;;4767745;55;21014;-22
2021/07/16 21:19:59;;;;;;;25.77;23.05;;;30.00;55.60;;;;;;4764770;55;21018;-24
2021/07/16 21:25:00;;;;;;;26.45;23.55;;;30.00;55.60;;;;;;4739413;55;21013;-23
2021/07/16 21:30:02;;;;;;;25.27;22.87;;;30.00;55.70;;;;;;4747717;55;21509;-24
2021/07/16 21:35:04;;;;;;;24.33;21.83;;;30.00;55.50;;;;;;4739356;59;21034;-22
2021/07/16 21:40:07;;;;;;;24.77;22.15;;;30.00;55.60;;;;;;4785206;55;21002;-29
2021/07/16 21:45:08;;;;;;;24.30;21.83;;;30.00;55.60;;;;;;4738300;59;21014;-26
2021/07/16 21:50:10;;;;;;;23.30;21.00;;;30.00;55.50;;;;;;4756579;55;21033;-29
2021/07/16 21:55:11;;;;;;;24.55;22.00;;;30.00;55.60;;;;;;4763616;55;21054;-29
2021/07/16 22:00:18;;;;;;;24.65;22.13;;;30.00;55.50;;;;;;4754220;55;21093;-27
2021/07/16 22:05:19;;;;;;;23.83;21.33;;;30.00;55.50;;;;;;4759041;55;20962;-27
2021/07/16 22:10:20;;;;;;;23.48;21.08;;;30.00;55.50;;;;;;4739438;55;21511;-22
2021/07/16 22:15:21;;;;;;;22.45;20.25;;;30.00;55.50;;;;;;4760596;55;21069;-25
2021/07/16 22:20:22;;;;;;;21.85;19.65;;;30.00;55.40;;;;;;4738892;59;21384;-26
2021/07/16 22:25:23;;;;;;;23.05;20.70;;;30.00;55.50;;;;;;4738165;55;20990;-27
2021/07/16 22:30:24;;;;;;;22.33;20.02;;;30.00;54.90;;;;;;4747035;55;21058;-27
2021/07/16 22:35:24;;;;;;;22.58;20.33;;;30.00;55.40;;;;;;4792302;55;21063;-26
2021/07/16 22:40:25;;;;;;;22.23;19.92;;;30.00;55.40;;;;;;4766175;55;21492;-26
2021/07/16 22:45:26;;;;;;;21.50;19.42;;;30.00;55.40;;;;;;4738084;59;20999;-24
2021/07/16 22:50:27;;;;;;;20.40;18.40;;;30.00;55.30;;;;;;4759731;55;21505;-30
2021/07/16 22:55:28;;;;;;;21.42;19.17;;;30.00;55.40;;;;;;4748945;55;21010;-27
2021/07/16 23:00:30;;;;;;;21.35;19.33;;;30.00;55.90;;;;;;4749732;55;21062;-31
2021/07/16 23:05:34;;;;;;;20.88;18.77;;;30.00;55.30;;;;;;4826311;55;21477;-27
2021/07/16 23:10:35;;;;;;;19.15;17.25;;;30.00;55.30;;;;;;4743813;55;21026;-25
2021/07/16 23:15:36;;;;;;;20.10;18.10;;;30.00;55.30;;;;;;4753743;55;21049;-24
2021/07/16 23:20:39;;;;;;;19.85;17.92;;;30.00;55.20;;;;;;4779540;55;21045;-23
2021/07/16 23:25:41;;;;;;;19.75;17.85;;;30.00;55.20;;;;;;4758330;55;20998;-23
2021/07/16 23:30:42;;;;;;;19.10;17.23;;;30.00;55.20;;;;;;4756401;55;21483;-25
2021/07/16 23:35:43;;;;;;;18.40;16.62;;;30.00;55.20;;;;;;4738245;59;21026;-24
2021/07/16 23:40:44;;;;;;;17.90;16.30;;;30.00;55.20;;;;;;4775002;55;21017;-25
2021/07/16 23:45:45;;;;;;;18.55;16.65;;;30.00;55.20;;;;;;4817641;55;21002;-27
2021/07/16 23:50:46;;;;;;;18.00;16.20;;;30.00;55.20;;;;;;4737969;59;21010;-31
2021/07/16 23:55:47;;;;;;;17.83;16.02;;;30.00;55.10;;;;;;4786197;55;21026;-27
